ROMMA est une association bénévole à but non lucratif. Votre soutien est indispensable : ADHERER à ROMMA ou FAIRE un DON

Peyrus - (26, Drôme)

Vercors Ouest (430 m)   Longitude: 05°06'28"E   Latitude: 44°54'41"N Station partenaire n°83
 

Détail journalier du     <<     >>

Température Precipitation Humidité Pression Vent Dir Rafale Dir. rafale Second capteur de température situé à 410 m
Heure (°C) (mm) (%) (hPa) (km/h) (km/h) (°C)
01:00 9.706610231SE16ESE9.4
02:00 9.606610221ENE18E8.9
03:00 8.008210223N19NNO7.8
04:00 8.407810223N21NNO8.3
05:00 8.207710224NE23NNE8.3
06:00 7.907510225N23N7.8
07:00 7.607410235NE23E7.8
08:00 7.607210235NNE23NNO7.8
09:00 8.607410237N35N8.3
10:00 9.407110237N27NNO9.4
11:00 8.5076102310N27NNO8.9
12:00 9.407110228N35NNO10.6
13:00 10.106710227N32N10.6
14:00 9.706310228N26N10.0
15:00 10.805810218NNO29E11.1
16:00 10.406210218N27N10.6
17:00 10.6062102111N37N11.1
18:00 10.106110207NNO34NNO11.1
19:00 9.606010205N35NNO10.0
20:00 9.006510218N34NNO8.9
21:00 8.506710213N27N8.9
22:00 7.507510213N21N7.8
23:00 7.407310214N18N7.2
minuit 7.10.27910212N18N6.7

Graphique du 28-04-2019

 

Serveur OMMA